Amarillo, TX (79106)

6:22 AM CST on December 26, 2014 (GMT -0600)
Puckett West | Change Station
CLOSE
Current Station
Personal Weather Station
Location: Amarillo, TX
Elevation: 3727 ft
Nearby Weather Stations

Elev 3727 ft 35.18 °N, 101.94 °W | Updated 1 second ago

Partly Cloudy
Partly Cloudy
25.5 °F
Feels Like 17 °F
N
8.3
Wind Variable Wind from NNE
Gusts 14.5 mph

Today
High -- | Low -- °F
--% Chance of Precip.
Yesterday
High -- | Low -- °F
Precip. -- in
7:54 AM 5:42 PM
Waxing Crescent, 25% visible
Pressure 29.75 in
Visibility 10.0 miles
Clouds Clear
Windchill 17 °F
Dew Point 22 °F
Humidity 86%
Rainfall 0.00 in
Snow Depth Not available.
UV 0 out of 12
Pollen 6.20 out of 12
Air Quality Not available.
Flu Activity Not available.
METAR KAMA 261053Z AUTO 31006KT 10SM CLR 03/M04 A2977 RMK AO2 SLP072 T00281044

More Conditions Fewer Conditions

Pressure 29.75 in
Visibility 10.0 miles
Clouds Clear
Windchill 17 °F
Dew Point 22 °F
Humidity 86%
Rainfall 0.00 in
Snow Depth Not available.
UV 0 out of 12
Pollen 6.20 out of 12
Air Quality Not available.
Flu Activity Not available.
METAR KAMA 261053Z AUTO 31006KT 10SM CLR 03/M04 A2977 RMK AO2 SLP072 T00281044

More Conditions Fewer Conditions

10-Day Weather Forecast

Almanac

Astronomy

Dec. 26, 2014 Rise Set
Actual Time
Civil Twilight
Nautical Twilight
Astronomical Twilight
Moon
Length of Visible Light
Length of Day
Tomorrow will be .
, % of the Moon is Illuminated

Today's Extremes

State Highs State Lows

Community

WunderPhotos

Upload Photos

1,780,585 photos uploaded!

WunderBlogs® & News

Nearby

Air Quality

  Air Quality AQ Index Pollutant
Not available.

Snow Depth

Station Depth Elevation

Earthquake Activity

City Distance Mag. Time & Date
Minimum magnitude displayed is 2.5.

Coastal Water Temperatures

Place Temperature

Nearby Weather Stations